createdAt,value
2023-08-27T00:02:17.421Z,90.91
2023-08-27T00:04:44.696Z,90.12
2023-08-27T00:07:11.719Z,90.17
2023-08-27T00:09:38.738Z,90.50
2023-08-27T00:12:06.308Z,90.85
2023-08-27T00:14:33.280Z,90.83
2023-08-27T00:17:04.262Z,89.61
2023-08-27T00:19:34.278Z,88.81
2023-08-27T00:22:04.794Z,88.67
2023-08-27T00:24:33.321Z,88.68
2023-08-27T00:27:00.319Z,89.13
2023-08-27T00:29:27.322Z,89.75
2023-08-27T00:31:54.336Z,89.31
2023-08-27T00:34:32.064Z,89.76
2023-08-27T00:36:59.923Z,89.07
2023-08-27T00:39:28.069Z,88.69
2023-08-27T00:41:54.999Z,87.78
2023-08-27T00:44:24.588Z,86.23
2023-08-27T00:46:52.102Z,86.59
2023-08-27T00:49:19.154Z,87.47
2023-08-27T00:51:47.718Z,87.00
2023-08-27T00:54:15.178Z,86.81
2023-08-27T00:56:47.833Z,86.59
2023-08-27T00:59:18.125Z,88.05
2023-08-27T01:01:48.084Z,88.62
2023-08-27T01:04:15.049Z,89.30
2023-08-27T01:06:42.597Z,90.07
2023-08-27T01:09:13.790Z,90.15
2023-08-27T01:12:00.544Z,90.07
2023-08-27T01:14:30.973Z,90.41
2023-08-27T01:17:00.898Z,90.26
2023-08-27T01:19:33.530Z,90.31
2023-08-27T01:22:00.671Z,89.94
2023-08-27T01:24:30.116Z,88.01
2023-08-27T01:27:12.799Z,89.20
2023-08-27T01:30:01.073Z,89.50
2023-08-27T01:32:59.166Z,90.06
2023-08-27T01:35:27.470Z,89.63
2023-08-27T01:37:58.956Z,89.03
2023-08-27T01:40:28.390Z,88.37
2023-08-27T01:42:58.508Z,90.02
2023-08-27T01:45:25.644Z,88.71
2023-08-27T01:47:52.666Z,88.91
2023-08-27T01:50:19.818Z,89.32
2023-08-27T01:52:46.737Z,89.19
2023-08-27T01:55:13.804Z,89.27
2023-08-27T01:57:40.894Z,87.68
2023-08-27T02:00:17.865Z,87.11
2023-08-27T02:02:46.012Z,87.54
2023-08-27T02:05:13.050Z,86.14
2023-08-27T02:07:41.081Z,86.77
2023-08-27T02:10:09.695Z,87.82
2023-08-27T02:12:39.346Z,87.44
2023-08-27T02:15:09.692Z,88.47
2023-08-27T02:17:39.478Z,89.15
2023-08-27T02:20:10.709Z,88.48
2023-08-27T02:22:37.972Z,86.60
2023-08-27T02:25:09.403Z,86.15
2023-08-27T02:27:39.472Z,86.53
2023-08-27T02:30:08.516Z,87.04
2023-08-27T02:32:35.498Z,86.95
2023-08-27T02:35:05.028Z,86.82
2023-08-27T02:37:31.917Z,87.51
2023-08-27T02:39:58.904Z,87.59
2023-08-27T02:42:25.953Z,87.07
2023-08-27T02:44:52.953Z,86.62
2023-08-27T02:47:20.871Z,86.03
2023-08-27T02:49:47.902Z,87.88
2023-08-27T02:52:14.855Z,87.12
2023-08-27T02:54:44.951Z,86.20
2023-08-27T02:57:11.952Z,87.06
2023-08-27T02:59:38.897Z,88.44
2023-08-27T03:02:10.515Z,89.35
2023-08-27T03:04:37.842Z,88.73
2023-08-27T03:07:07.386Z,88.95
2023-08-27T03:09:34.325Z,88.67
2023-08-27T03:12:05.774Z,87.20
2023-08-27T03:14:32.726Z,86.94
2023-08-27T03:17:01.896Z,87.49
2023-08-27T03:19:28.900Z,85.87
2023-08-27T03:21:55.856Z,86.63
2023-08-27T03:24:22.859Z,85.96
2023-08-27T03:26:51.286Z,87.09
2023-08-27T03:29:22.100Z,86.21
2023-08-27T03:31:49.374Z,86.42
2023-08-27T03:34:16.422Z,86.84
2023-08-27T03:36:43.420Z,85.68
2023-08-27T03:39:13.145Z,88.26
2023-08-27T03:41:42.337Z,88.54
2023-08-27T03:44:09.321Z,87.80
2023-08-27T03:46:37.558Z,88.37
2023-08-27T03:49:06.348Z,88.16
2023-08-27T03:51:35.554Z,87.13
2023-08-27T03:54:04.149Z,87.04
2023-08-27T03:56:31.077Z,87.16
2023-08-27T03:58:58.169Z,88.29
2023-08-27T04:01:29.684Z,87.53
2023-08-27T04:03:56.965Z,87.66
2023-08-27T04:06:23.956Z,86.72
2023-08-27T04:08:52.969Z,86.84
2023-08-27T04:11:21.977Z,86.44
2023-08-27T04:13:48.895Z,86.49
2023-08-27T04:16:15.868Z,87.15
2023-08-27T04:18:42.846Z,87.22
2023-08-27T04:21:10.299Z,88.72
2023-08-27T04:23:37.276Z,88.11
2023-08-27T04:26:04.976Z,88.50
2023-08-27T04:28:38.238Z,88.93
2023-08-27T04:31:05.503Z,89.58
2023-08-27T04:33:32.567Z,89.50
2023-08-27T04:35:59.550Z,89.57
2023-08-27T04:38:26.605Z,89.05
2023-08-27T04:40:54.544Z,90.42
2023-08-27T04:43:21.812Z,91.84
2023-08-27T04:45:49.146Z,91.83
2023-08-27T04:48:16.190Z,91.23
2023-08-27T04:50:47.746Z,91.01
2023-08-27T04:53:14.986Z,90.22
2023-08-27T04:55:42.265Z,90.07
2023-08-27T04:58:11.739Z,89.99
2023-08-27T05:00:41.014Z,89.06
2023-08-27T05:03:07.968Z,88.54
2023-08-27T05:05:36.368Z,88.28
2023-08-27T05:08:03.847Z,89.12
2023-08-27T05:10:30.829Z,88.84
2023-08-27T05:12:58.301Z,88.84
2023-08-27T05:15:25.324Z,90.06
2023-08-27T05:17:52.412Z,89.60
2023-08-27T05:20:19.389Z,90.08
2023-08-27T05:22:46.417Z,90.33
2023-08-27T05:25:15.630Z,89.88
2023-08-27T05:27:45.746Z,89.62
2023-08-27T05:30:16.156Z,89.95
2023-08-27T05:32:44.579Z,90.79
2023-08-27T05:35:11.915Z,89.72
2023-08-27T05:37:39.122Z,89.66
2023-08-27T05:40:07.537Z,87.83
2023-08-27T05:42:37.488Z,88.01
2023-08-27T05:45:05.005Z,87.88
2023-08-27T05:47:32.438Z,87.94
2023-08-27T05:49:59.506Z,87.82
2023-08-27T05:52:28.707Z,86.83
2023-08-27T05:54:55.611Z,85.70
2023-08-27T05:57:24.762Z,84.43
2023-08-27T05:59:51.812Z,84.06
2023-08-27T06:02:18.755Z,82.50
2023-08-27T06:04:45.679Z,82.63
2023-08-27T06:07:12.651Z,83.58
2023-08-27T06:09:39.684Z,82.51
2023-08-27T06:12:07.600Z,81.59
2023-08-27T06:14:35.638Z,82.97
2023-08-27T06:17:02.829Z,82.50
2023-08-27T06:19:47.670Z,82.14
2023-08-27T06:22:17.918Z,82.43
2023-08-27T06:24:46.007Z,82.14
2023-08-27T06:27:16.096Z,81.70
2023-08-27T06:29:48.750Z,82.28
2023-08-27T06:32:17.321Z,84.58
2023-08-27T06:34:44.775Z,84.26
2023-08-27T06:37:14.813Z,83.38
2023-08-27T06:39:41.856Z,83.99
2023-08-27T06:42:08.932Z,84.54
2023-08-27T06:44:36.116Z,83.68
2023-08-27T06:47:03.026Z,83.19
2023-08-27T06:49:33.035Z,82.89
2023-08-27T06:52:02.457Z,81.79
2023-08-27T06:54:30.011Z,82.63
2023-08-27T06:57:00.016Z,82.85
2023-08-27T06:59:27.085Z,82.09
2023-08-27T07:01:54.082Z,81.78
2023-08-27T07:04:24.550Z,81.35
2023-08-27T07:06:51.566Z,79.50
2023-08-27T07:09:19.452Z,79.76
2023-08-27T07:11:46.924Z,79.71
2023-08-27T07:14:13.868Z,79.68
2023-08-27T07:16:40.929Z,80.57
2023-08-27T07:19:08.014Z,81.18
2023-08-27T07:21:40.668Z,82.02
2023-08-27T07:24:14.938Z,81.99
2023-08-27T07:26:42.254Z,82.04
2023-08-27T07:29:09.327Z,80.36
2023-08-27T07:31:39.029Z,78.65
2023-08-27T07:34:08.845Z,78.55
2023-08-27T07:36:35.893Z,77.36
2023-08-27T07:39:05.922Z,78.61
2023-08-27T07:41:32.894Z,77.70
2023-08-27T07:43:59.814Z,79.02
2023-08-27T07:46:30.365Z,80.12
2023-08-27T07:48:57.377Z,79.79
2023-08-27T07:51:24.395Z,78.78
2023-08-27T07:53:51.689Z,80.27
2023-08-27T07:56:18.702Z,80.88
2023-08-27T07:58:45.722Z,80.19
2023-08-27T08:01:14.909Z,79.82
2023-08-27T08:03:42.631Z,80.11
2023-08-27T08:06:09.781Z,79.13
2023-08-27T08:08:36.929Z,79.23
2023-08-27T08:11:04.003Z,77.78
2023-08-27T08:13:31.234Z,79.59
2023-08-27T08:15:58.730Z,78.88
2023-08-27T08:18:27.976Z,79.16
2023-08-27T08:20:57.114Z,79.57
2023-08-27T08:23:24.079Z,79.79
2023-08-27T08:25:51.187Z,80.54
2023-08-27T08:28:18.145Z,79.37
2023-08-27T08:30:50.044Z,78.73
2023-08-27T08:33:17.904Z,79.30
2023-08-27T08:35:45.620Z,80.28
2023-08-27T08:38:14.853Z,80.43
2023-08-27T08:40:59.486Z,79.61
2023-08-27T08:43:36.778Z,79.01
2023-08-27T08:46:08.865Z,77.58
2023-08-27T08:48:42.793Z,76.94
2023-08-27T08:51:14.853Z,76.26
2023-08-27T08:53:44.764Z,75.41
2023-08-27T08:56:30.790Z,73.42
2023-08-27T08:58:59.547Z,71.95
2023-08-27T09:01:30.976Z,70.30
2023-08-27T09:04:00.753Z,71.62
2023-08-27T09:06:28.224Z,68.78
2023-08-27T09:08:55.864Z,64.90
2023-08-27T09:11:23.361Z,62.34
2023-08-27T09:13:51.316Z,59.80
2023-08-27T09:16:20.438Z,58.23
2023-08-27T09:18:47.451Z,58.65
2023-08-27T09:21:14.613Z,58.65
2023-08-27T09:23:41.614Z,60.44
2023-08-27T09:26:13.666Z,59.63
2023-08-27T09:28:43.635Z,58.90
2023-08-27T09:31:11.962Z,57.80
2023-08-27T09:33:43.403Z,55.68
2023-08-27T09:36:11.048Z,55.69
2023-08-27T09:38:40.421Z,56.68
2023-08-27T09:41:18.425Z,54.40
2023-08-27T09:43:55.105Z,53.72
2023-08-27T09:46:23.152Z,52.95
2023-08-27T09:49:06.251Z,52.49
2023-08-27T09:51:35.208Z,54.16
2023-08-27T09:54:13.456Z,53.31
2023-08-27T09:56:40.531Z,53.60
2023-08-27T09:59:10.061Z,55.33
2023-08-27T10:01:45.857Z,55.97
2023-08-27T10:04:12.798Z,53.59
2023-08-27T10:06:39.831Z,50.51
2023-08-27T10:09:07.153Z,50.31
2023-08-27T10:11:37.353Z,48.77
2023-08-27T10:14:05.976Z,47.80
2023-08-27T10:16:37.247Z,45.73
2023-08-27T10:19:07.532Z,47.12
2023-08-27T10:21:34.681Z,49.32
2023-08-27T10:24:04.053Z,47.75
2023-08-27T10:29:35.979Z,51.92
2023-08-27T10:32:04.191Z,50.88
2023-08-27T10:34:34.791Z,48.80
2023-08-27T10:37:09.095Z,49.66
2023-08-27T10:39:42.196Z,48.76
2023-08-27T10:42:09.469Z,50.15
2023-08-27T10:44:37.213Z,49.40
2023-08-27T10:47:16.054Z,52.67
2023-08-27T10:49:49.991Z,50.74
2023-08-27T10:52:27.014Z,50.46
2023-08-27T10:55:01.845Z,50.51
2023-08-27T10:57:28.802Z,51.64
2023-08-27T11:00:12.002Z,52.22
2023-08-27T11:03:14.410Z,52.01
2023-08-27T11:05:46.664Z,52.79
2023-08-27T11:08:17.478Z,55.35
2023-08-27T11:10:47.331Z,56.32
2023-08-27T11:13:36.806Z,56.53
2023-08-27T11:16:14.622Z,57.23
2023-08-27T11:18:51.681Z,57.67
2023-08-27T11:21:27.716Z,57.74
2023-08-27T11:24:25.928Z,59.50
2023-08-27T11:26:54.485Z,60.69
2023-08-27T11:29:24.958Z,60.42
2023-08-27T11:31:52.184Z,62.10
2023-08-27T11:34:21.308Z,60.70
2023-08-27T11:36:50.170Z,61.75
2023-08-27T11:39:17.333Z,62.48
2023-08-27T11:41:45.533Z,63.14
2023-08-27T11:44:12.929Z,65.31
2023-08-27T11:46:42.905Z,65.75
2023-08-27T11:49:12.054Z,66.54
2023-08-27T11:51:39.017Z,66.20
2023-08-27T11:54:08.456Z,65.60
2023-08-27T11:56:41.102Z,65.10
2023-08-27T11:59:08.104Z,64.44
2023-08-27T12:01:38.661Z,64.32
2023-08-27T12:04:12.588Z,63.13
2023-08-27T12:06:39.608Z,62.18
2023-08-27T12:09:09.497Z,62.61
2023-08-27T12:11:38.553Z,61.91
2023-08-27T12:14:05.467Z,63.80
2023-08-27T12:16:34.712Z,66.55
2023-08-27T12:19:09.861Z,66.23
2023-08-27T12:21:55.175Z,65.66
2023-08-27T12:24:45.524Z,66.67
2023-08-27T12:27:18.373Z,66.99
2023-08-27T12:29:47.297Z,66.85
2023-08-27T12:32:19.082Z,67.50
2023-08-27T12:34:53.810Z,68.66
2023-08-27T12:37:26.846Z,67.51
2023-08-27T12:39:57.262Z,61.86
2023-08-27T12:42:26.557Z,59.52
2023-08-27T12:44:54.260Z,59.33
2023-08-27T12:47:21.344Z,58.99
2023-08-27T12:49:48.300Z,58.52
2023-08-27T12:52:19.284Z,58.72
2023-08-27T12:54:50.975Z,59.04
2023-08-27T12:57:18.094Z,58.53
2023-08-27T12:59:44.985Z,58.42
2023-08-27T13:02:11.948Z,58.51
2023-08-27T13:04:41.232Z,57.91
2023-08-27T13:07:08.152Z,57.85
2023-08-27T13:09:38.172Z,58.18
2023-08-27T13:12:08.864Z,58.68
2023-08-27T13:14:35.932Z,56.10
2023-08-27T13:17:03.241Z,56.23
2023-08-27T13:19:31.847Z,54.96
2023-08-27T13:21:58.780Z,53.16
2023-08-27T13:24:25.791Z,54.63
2023-08-27T13:26:52.800Z,52.94
2023-08-27T13:29:36.832Z,55.94
2023-08-27T13:32:05.270Z,54.65
2023-08-27T13:34:32.374Z,53.73
2023-08-27T13:36:59.843Z,53.10
2023-08-27T13:39:26.841Z,52.27
2023-08-27T13:41:53.884Z,53.36
2023-08-27T13:44:20.794Z,53.63
2023-08-27T13:46:47.719Z,53.79
2023-08-27T13:49:14.792Z,52.90
2023-08-27T13:51:41.771Z,55.22
2023-08-27T13:54:10.472Z,56.10
2023-08-27T13:56:40.496Z,57.12
2023-08-27T13:59:10.430Z,57.07
2023-08-27T14:01:42.311Z,56.95
2023-08-27T14:04:11.668Z,56.33
2023-08-27T14:06:40.138Z,56.64
2023-08-27T14:09:07.153Z,55.90
2023-08-27T14:11:35.741Z,54.65
2023-08-27T14:14:05.297Z,56.14
2023-08-27T14:16:32.178Z,55.67
2023-08-27T14:18:59.089Z,54.04
2023-08-27T14:21:25.992Z,52.33
2023-08-27T14:23:55.041Z,51.38
2023-08-27T14:26:22.089Z,52.45
2023-08-27T14:28:49.124Z,51.77
2023-08-27T14:31:20.726Z,51.50
2023-08-27T14:33:47.637Z,50.43
2023-08-27T14:36:14.552Z,50.49
2023-08-27T14:38:45.212Z,49.52
2023-08-27T14:41:14.317Z,48.23
2023-08-27T14:43:41.285Z,50.26
2023-08-27T14:46:08.253Z,50.42
2023-08-27T14:48:35.562Z,49.29
2023-08-27T14:51:02.596Z,49.96
2023-08-27T14:53:29.546Z,50.05
2023-08-27T14:55:56.489Z,50.10
2023-08-27T14:58:26.376Z,50.62
2023-08-27T15:00:53.432Z,52.13
2023-08-27T15:03:20.489Z,52.94
2023-08-27T15:05:47.619Z,52.75
2023-08-27T15:08:14.604Z,52.07
2023-08-27T15:10:41.527Z,52.67
2023-08-27T15:13:08.626Z,52.58
2023-08-27T15:15:35.626Z,54.33
2023-08-27T15:18:02.754Z,55.14
2023-08-27T15:20:33.006Z,55.93
2023-08-27T15:23:00.096Z,55.13
2023-08-27T15:25:27.430Z,56.95
2023-08-27T15:27:54.510Z,56.79
2023-08-27T15:30:23.758Z,57.83
2023-08-27T15:32:50.826Z,57.00
2023-08-27T15:35:20.646Z,56.79
2023-08-27T15:37:50.160Z,58.48
2023-08-27T15:40:17.413Z,58.32
2023-08-27T15:42:48.726Z,58.99
2023-08-27T15:45:16.098Z,58.39
2023-08-27T15:47:47.721Z,58.62
2023-08-27T15:50:17.573Z,59.42
2023-08-27T15:52:47.791Z,60.24
2023-08-27T15:55:14.815Z,59.75
2023-08-27T15:57:41.715Z,59.46
2023-08-27T16:00:09.768Z,58.96
2023-08-27T16:02:36.768Z,59.27
2023-08-27T16:05:03.960Z,58.78
2023-08-27T16:07:30.844Z,58.15
2023-08-27T16:09:57.727Z,58.08
2023-08-27T16:12:29.282Z,58.08
2023-08-27T16:14:56.328Z,56.49
2023-08-27T16:17:23.277Z,55.67
2023-08-27T16:19:53.800Z,56.25
2023-08-27T16:22:20.731Z,56.11
2023-08-27T16:24:48.121Z,56.23
2023-08-27T16:27:17.116Z,56.08
2023-08-27T16:29:44.030Z,56.16
2023-08-27T16:32:13.453Z,58.13
2023-08-27T16:34:43.347Z,56.60
2023-08-27T16:37:13.329Z,57.65
2023-08-27T16:39:40.396Z,56.68
2023-08-27T16:42:11.884Z,57.62
2023-08-27T16:44:40.897Z,59.22
2023-08-27T16:47:07.932Z,58.61
2023-08-27T16:49:35.171Z,58.89
2023-08-27T16:52:02.235Z,59.75
2023-08-27T16:54:29.214Z,59.41
2023-08-27T16:57:00.839Z,58.77
2023-08-27T16:59:27.717Z,58.57
2023-08-27T17:01:54.796Z,59.71
2023-08-27T17:04:24.799Z,59.35
2023-08-27T17:06:55.262Z,61.15
2023-08-27T17:09:22.282Z,60.69
2023-08-27T17:11:51.866Z,60.30
2023-08-27T17:14:18.914Z,60.66
2023-08-27T17:16:46.020Z,61.87
2023-08-27T17:19:13.017Z,64.01
2023-08-27T17:21:40.201Z,63.67
2023-08-27T17:24:12.656Z,62.73
2023-08-27T17:26:39.683Z,62.92
2023-08-27T17:29:09.365Z,64.01
2023-08-27T17:31:36.530Z,61.16
2023-08-27T17:34:04.384Z,57.55
2023-08-27T17:36:34.111Z,55.70
2023-08-27T17:39:01.102Z,54.74
2023-08-27T17:41:31.266Z,53.83
2023-08-27T17:43:58.185Z,54.17
2023-08-27T17:46:30.335Z,55.12
2023-08-27T17:48:59.876Z,57.39
2023-08-27T17:51:26.797Z,60.20
2023-08-27T17:53:53.725Z,63.42
2023-08-27T17:56:23.631Z,65.48
2023-08-27T17:58:51.238Z,67.85
2023-08-27T18:01:18.153Z,68.76
2023-08-27T18:03:45.126Z,69.55
2023-08-27T18:06:14.584Z,70.38
2023-08-27T18:08:41.501Z,71.22
2023-08-27T18:11:10.680Z,71.70
2023-08-27T18:13:40.165Z,71.69
2023-08-27T18:16:08.190Z,74.73
2023-08-27T18:18:38.709Z,75.27
2023-08-27T18:21:05.714Z,76.35
2023-08-27T18:23:32.650Z,76.73
2023-08-27T18:26:07.943Z,77.29
2023-08-27T18:28:38.945Z,78.10
2023-08-27T18:31:05.957Z,80.02
2023-08-27T18:33:32.982Z,81.04
2023-08-27T18:36:00.095Z,83.77
2023-08-27T18:38:27.971Z,85.21
2023-08-27T18:40:56.219Z,86.64
2023-08-27T18:43:23.908Z,87.77
2023-08-27T18:45:53.519Z,90.22
2023-08-27T18:48:20.597Z,93.10
2023-08-27T18:50:50.211Z,93.83
2023-08-27T18:53:19.367Z,93.67
2023-08-27T18:55:47.233Z,93.84
2023-08-27T18:58:16.630Z,93.02
2023-08-27T19:00:43.641Z,92.70
2023-08-27T19:03:10.757Z,93.31
2023-08-27T19:05:42.050Z,94.16
2023-08-27T19:08:09.173Z,95.29
2023-08-27T19:10:36.397Z,95.16
2023-08-27T19:13:03.781Z,95.46
2023-08-27T19:15:35.143Z,95.86
2023-08-27T19:18:03.858Z,94.53
2023-08-27T19:20:34.072Z,95.24
2023-08-27T19:23:03.394Z,94.46
2023-08-27T19:25:33.011Z,95.79
2023-08-27T19:28:00.335Z,94.36
2023-08-27T19:30:27.702Z,94.26
2023-08-27T19:32:58.083Z,94.77
2023-08-27T19:35:25.301Z,93.68
2023-08-27T19:37:59.131Z,94.33
2023-08-27T19:40:26.964Z,94.79
2023-08-27T19:42:53.982Z,95.13
2023-08-27T19:45:24.636Z,96.39
2023-08-27T19:47:51.624Z,95.18
2023-08-27T19:50:18.696Z,95.40
2023-08-27T19:52:45.795Z,95.56
2023-08-27T19:55:13.280Z,96.89
2023-08-27T19:57:40.310Z,98.05
2023-08-27T20:00:08.308Z,99.36
2023-08-27T20:02:38.314Z,99.05
2023-08-27T20:05:06.091Z,97.44
2023-08-27T20:07:33.080Z,97.47
2023-08-27T20:10:00.046Z,96.10
2023-08-27T20:12:26.956Z,96.39
2023-08-27T20:14:56.833Z,96.59
2023-08-27T20:17:23.754Z,96.37
2023-08-27T20:19:53.822Z,95.77
2023-08-27T20:22:23.867Z,96.02
2023-08-27T20:24:50.938Z,95.97
2023-08-27T20:27:20.331Z,95.01
2023-08-27T20:29:47.293Z,95.67
2023-08-27T20:32:14.336Z,96.41
2023-08-27T20:34:44.680Z,95.90
2023-08-27T20:37:16.130Z,96.67
2023-08-27T20:39:44.709Z,97.79
2023-08-27T20:42:11.592Z,97.80
2023-08-27T20:44:39.110Z,97.70
2023-08-27T20:47:06.051Z,97.63
2023-08-27T20:49:35.154Z,98.82
2023-08-27T20:52:04.800Z,99.15
2023-08-27T20:54:31.775Z,99.67
2023-08-27T20:56:58.827Z,99.14
2023-08-27T20:59:25.857Z,100.00
2023-08-27T21:01:58.587Z,100.00
2023-08-27T21:04:28.902Z,100.00
2023-08-27T21:06:55.929Z,100.00
2023-08-27T21:09:23.415Z,100.00
2023-08-27T21:11:50.383Z,100.00
2023-08-27T21:14:17.413Z,100.00
2023-08-27T21:16:44.527Z,100.00
2023-08-27T21:19:16.925Z,99.48
2023-08-27T21:21:43.845Z,100.00
2023-08-27T21:24:12.326Z,100.00
2023-08-27T21:26:44.350Z,100.00
2023-08-27T21:29:11.264Z,100.00
2023-08-27T21:31:53.943Z,100.00
2023-08-27T21:34:22.560Z,100.00
2023-08-27T21:36:53.273Z,100.00
2023-08-27T21:39:23.415Z,100.00
2023-08-27T21:41:53.086Z,100.00
2023-08-27T21:44:20.362Z,100.00
2023-08-27T21:46:49.556Z,100.00
2023-08-27T21:49:18.186Z,100.00
2023-08-27T21:51:46.086Z,100.00
2023-08-27T21:54:14.166Z,100.00
2023-08-27T21:56:43.527Z,100.00
2023-08-27T21:59:10.439Z,100.00
2023-08-27T22:01:37.415Z,100.00
2023-08-27T22:04:04.931Z,100.00
2023-08-27T22:06:31.997Z,100.00
2023-08-27T22:08:59.369Z,100.00
2023-08-27T22:11:28.094Z,100.00
2023-08-27T22:13:59.855Z,100.00
2023-08-27T22:16:26.876Z,100.00
2023-08-27T22:18:57.134Z,100.00
2023-08-27T22:21:25.328Z,100.00
2023-08-27T22:23:56.226Z,100.00
2023-08-27T22:26:23.269Z,100.00
2023-08-27T22:28:50.166Z,100.00
2023-08-27T22:31:17.083Z,100.00
2023-08-27T22:33:44.388Z,100.00
2023-08-27T22:36:13.601Z,100.00
2023-08-27T22:38:40.669Z,100.00
2023-08-27T22:41:07.620Z,100.00
2023-08-27T22:43:37.023Z,100.00
2023-08-27T22:46:07.078Z,100.00
2023-08-27T22:48:34.026Z,100.00
2023-08-27T22:51:03.419Z,100.00
2023-08-27T22:53:30.386Z,100.00
2023-08-27T22:55:57.865Z,100.00
2023-08-27T22:58:24.774Z,100.00
2023-08-27T23:00:56.742Z,100.00
2023-08-27T23:03:23.724Z,100.00
2023-08-27T23:05:53.308Z,100.00
2023-08-27T23:08:20.286Z,100.00
2023-08-27T23:10:50.258Z,100.00
2023-08-27T23:13:19.523Z,100.00
2023-08-27T23:15:50.185Z,100.00
2023-08-27T23:18:22.781Z,100.00
2023-08-27T23:20:49.701Z,100.00
2023-08-27T23:23:16.645Z,100.00
2023-08-27T23:25:46.236Z,100.00
2023-08-27T23:28:16.042Z,100.00
2023-08-27T23:30:43.184Z,100.00
2023-08-27T23:33:10.541Z,100.00
2023-08-27T23:35:37.793Z,100.00
2023-08-27T23:38:05.022Z,100.00
2023-08-27T23:40:31.916Z,100.00
2023-08-27T23:42:58.874Z,100.00
2023-08-27T23:45:27.970Z,100.00
2023-08-27T23:47:55.089Z,100.00
2023-08-27T23:50:21.991Z,100.00
2023-08-27T23:52:49.229Z,100.00
2023-08-27T23:55:16.546Z,100.00
2023-08-27T23:57:43.651Z,100.00
